sensor_id;sensor_type;location;lat;lon;timestamp;temperature;humidity
79187;SHT31;68762;51.980;5.646;2024-01-10T00:00:07;-0.8;42.4
79187;SHT31;68762;51.980;5.646;2024-01-10T00:02:36;-0.8;42.9
79187;SHT31;68762;51.980;5.646;2024-01-10T00:05:05;-0.8;43.3
79187;SHT31;68762;51.980;5.646;2024-01-10T00:07:34;-0.8;42.9
79187;SHT31;68762;51.980;5.646;2024-01-10T00:10:04;-0.8;43.3
79187;SHT31;68762;51.980;5.646;2024-01-10T00:12:33;-0.8;42.9
79187;SHT31;68762;51.980;5.646;2024-01-10T00:15:04;-0.8;42.8
79187;SHT31;68762;51.980;5.646;2024-01-10T00:17:32;-0.9;42.8
79187;SHT31;68762;51.980;5.646;2024-01-10T00:20:01;-0.9;43.4
79187;SHT31;68762;51.980;5.646;2024-01-10T00:22:29;-0.9;43.5
79187;SHT31;68762;51.980;5.646;2024-01-10T00:24:58;-0.9;42.7
79187;SHT31;68762;51.980;5.646;2024-01-10T00:27:26;-0.9;43.7
79187;SHT31;68762;51.980;5.646;2024-01-10T00:29:55;-0.9;43.4
79187;SHT31;68762;51.980;5.646;2024-01-10T00:32:24;-0.9;44.2
79187;SHT31;68762;51.980;5.646;2024-01-10T00:34:52;-0.9;45.1
79187;SHT31;68762;51.980;5.646;2024-01-10T00:37:21;-0.9;44.2
79187;SHT31;68762;51.980;5.646;2024-01-10T00:39:49;-0.9;44.6
79187;SHT31;68762;51.980;5.646;2024-01-10T00:42:18;-0.9;44.7
79187;SHT31;68762;51.980;5.646;2024-01-10T00:44:46;-1.0;44.5
79187;SHT31;68762;51.980;5.646;2024-01-10T00:47:15;-1.0;44.8
79187;SHT31;68762;51.980;5.646;2024-01-10T00:49:43;-1.0;45.3
79187;SHT31;68762;51.980;5.646;2024-01-10T00:52:12;-1.0;45.6
79187;SHT31;68762;51.980;5.646;2024-01-10T00:54:42;-1.0;45.8
79187;SHT31;68762;51.980;5.646;2024-01-10T00:57:12;-1.0;45.6
79187;SHT31;68762;51.980;5.646;2024-01-10T00:59:41;-1.1;46.3
79187;SHT31;68762;51.980;5.646;2024-01-10T01:02:10;-1.1;45.8
79187;SHT31;68762;51.980;5.646;2024-01-10T01:04:38;-1.1;46.2
79187;SHT31;68762;51.980;5.646;2024-01-10T01:07:07;-1.2;46.3
79187;SHT31;68762;51.980;5.646;2024-01-10T01:09:35;-1.2;46.0
79187;SHT31;68762;51.980;5.646;2024-01-10T01:12:04;-1.3;46.8
79187;SHT31;68762;51.980;5.646;2024-01-10T01:14:35;-1.3;47.0
79187;SHT31;68762;51.980;5.646;2024-01-10T01:17:04;-1.3;47.1
79187;SHT31;68762;51.980;5.646;2024-01-10T01:19:32;-1.3;46.7
79187;SHT31;68762;51.980;5.646;2024-01-10T01:22:01;-1.3;47.1
79187;SHT31;68762;51.980;5.646;2024-01-10T01:24:29;-1.4;47.3
79187;SHT31;68762;51.980;5.646;2024-01-10T01:26:58;-1.4;47.7
79187;SHT31;68762;51.980;5.646;2024-01-10T01:29:27;-1.4;47.2
79187;SHT31;68762;51.980;5.646;2024-01-10T01:31:57;-1.4;46.6
79187;SHT31;68762;51.980;5.646;2024-01-10T01:34:25;-1.4;47.1
79187;SHT31;68762;51.980;5.646;2024-01-10T01:36:54;-1.4;47.1
79187;SHT31;68762;51.980;5.646;2024-01-10T01:39:22;-1.4;47.3
79187;SHT31;68762;51.980;5.646;2024-01-10T01:41:51;-1.4;47.3
79187;SHT31;68762;51.980;5.646;2024-01-10T01:44:19;-1.4;47.5
79187;SHT31;68762;51.980;5.646;2024-01-10T01:46:49;-1.4;47.2
79187;SHT31;68762;51.980;5.646;2024-01-10T01:49:18;-1.4;47.1
79187;SHT31;68762;51.980;5.646;2024-01-10T01:51:47;-1.4;47.6
79187;SHT31;68762;51.980;5.646;2024-01-10T01:54:17;-1.4;47.3
79187;SHT31;68762;51.980;5.646;2024-01-10T01:56:49;-1.4;47.2
79187;SHT31;68762;51.980;5.646;2024-01-10T01:59:21;-1.4;46.9
79187;SHT31;68762;51.980;5.646;2024-01-10T02:01:51;-1.4;47.8
79187;SHT31;68762;51.980;5.646;2024-01-10T02:04:21;-1.4;48.1
79187;SHT31;68762;51.980;5.646;2024-01-10T02:06:50;-1.4;47.9
79187;SHT31;68762;51.980;5.646;2024-01-10T02:09:19;-1.4;47.9
79187;SHT31;68762;51.980;5.646;2024-01-10T02:11:48;-1.4;47.7
79187;SHT31;68762;51.980;5.646;2024-01-10T02:14:17;-1.4;48.0
79187;SHT31;68762;51.980;5.646;2024-01-10T02:16:46;-1.5;48.0
79187;SHT31;68762;51.980;5.646;2024-01-10T02:19:22;-1.5;47.8
79187;SHT31;68762;51.980;5.646;2024-01-10T02:21:53;-1.5;47.8
79187;SHT31;68762;51.980;5.646;2024-01-10T02:24:24;-1.5;47.9
79187;SHT31;68762;51.980;5.646;2024-01-10T02:26:53;-1.5;48.0
79187;SHT31;68762;51.980;5.646;2024-01-10T02:29:21;-1.5;48.3
79187;SHT31;68762;51.980;5.646;2024-01-10T02:31:50;-1.5;48.3
79187;SHT31;68762;51.980;5.646;2024-01-10T02:34:19;-1.5;48.3
79187;SHT31;68762;51.980;5.646;2024-01-10T02:36:47;-1.5;48.5
79187;SHT31;68762;51.980;5.646;2024-01-10T02:39:16;-1.5;48.8
79187;SHT31;68762;51.980;5.646;2024-01-10T02:41:44;-1.6;48.5
79187;SHT31;68762;51.980;5.646;2024-01-10T02:44:13;-1.6;48.6
79187;SHT31;68762;51.980;5.646;2024-01-10T02:46:42;-1.6;48.6
79187;SHT31;68762;51.980;5.646;2024-01-10T02:49:11;-1.6;48.7
79187;SHT31;68762;51.980;5.646;2024-01-10T02:51:40;-1.6;49.1
79187;SHT31;68762;51.980;5.646;2024-01-10T02:54:10;-1.6;49.6
79187;SHT31;68762;51.980;5.646;2024-01-10T02:56:39;-1.6;49.4
79187;SHT31;68762;51.980;5.646;2024-01-10T02:59:07;-1.6;49.1
79187;SHT31;68762;51.980;5.646;2024-01-10T03:01:36;-1.6;49.2
79187;SHT31;68762;51.980;5.646;2024-01-10T03:04:04;-1.6;49.2
79187;SHT31;68762;51.980;5.646;2024-01-10T03:06:33;-1.6;49.7
79187;SHT31;68762;51.980;5.646;2024-01-10T03:09:01;-1.7;49.3
79187;SHT31;68762;51.980;5.646;2024-01-10T03:11:30;-1.7;49.4
79187;SHT31;68762;51.980;5.646;2024-01-10T03:14:09;-1.7;49.5
79187;SHT31;68762;51.980;5.646;2024-01-10T03:16:38;-1.7;49.7
79187;SHT31;68762;51.980;5.646;2024-01-10T03:19:06;-1.7;49.7
79187;SHT31;68762;51.980;5.646;2024-01-10T03:21:35;-1.7;49.5
79187;SHT31;68762;51.980;5.646;2024-01-10T03:24:06;-1.7;49.7
79187;SHT31;68762;51.980;5.646;2024-01-10T03:26:35;-1.7;49.9
79187;SHT31;68762;51.980;5.646;2024-01-10T03:29:03;-1.7;50.2
79187;SHT31;68762;51.980;5.646;2024-01-10T03:31:32;-1.8;49.8
79187;SHT31;68762;51.980;5.646;2024-01-10T03:34:01;-1.8;49.9
79187;SHT31;68762;51.980;5.646;2024-01-10T03:36:31;-1.8;49.8
79187;SHT31;68762;51.980;5.646;2024-01-10T03:39:00;-1.8;50.2
79187;SHT31;68762;51.980;5.646;2024-01-10T03:41:28;-1.8;50.5
79187;SHT31;68762;51.980;5.646;2024-01-10T03:43:57;-1.8;50.5
79187;SHT31;68762;51.980;5.646;2024-01-10T03:46:27;-1.9;50.5
79187;SHT31;68762;51.980;5.646;2024-01-10T03:48:58;-1.9;50.6
79187;SHT31;68762;51.980;5.646;2024-01-10T03:51:26;-1.9;50.6
79187;SHT31;68762;51.980;5.646;2024-01-10T03:53:55;-1.9;50.8
79187;SHT31;68762;51.980;5.646;2024-01-10T03:56:24;-1.9;51.1
79187;SHT31;68762;51.980;5.646;2024-01-10T03:58:54;-1.9;51.0
79187;SHT31;68762;51.980;5.646;2024-01-10T04:01:25;-1.9;51.0
79187;SHT31;68762;51.980;5.646;2024-01-10T04:03:54;-2.0;51.2
79187;SHT31;68762;51.980;5.646;2024-01-10T04:06:23;-2.0;51.2
79187;SHT31;68762;51.980;5.646;2024-01-10T04:08:56;-2.0;51.2
79187;SHT31;68762;51.980;5.646;2024-01-10T04:11:24;-2.0;51.2
79187;SHT31;68762;51.980;5.646;2024-01-10T04:13:53;-2.0;51.0
79187;SHT31;68762;51.980;5.646;2024-01-10T04:16:22;-2.0;51.0
79187;SHT31;68762;51.980;5.646;2024-01-10T04:18:51;-2.0;51.3
79187;SHT31;68762;51.980;5.646;2024-01-10T04:21:19;-2.0;51.7
79187;SHT31;68762;51.980;5.646;2024-01-10T04:23:48;-2.0;51.7
79187;SHT31;68762;51.980;5.646;2024-01-10T04:26:18;-2.0;51.4
79187;SHT31;68762;51.980;5.646;2024-01-10T04:28:46;-2.0;51.5
79187;SHT31;68762;51.980;5.646;2024-01-10T04:31:15;-2.1;51.5
79187;SHT31;68762;51.980;5.646;2024-01-10T04:33:44;-2.1;51.6
79187;SHT31;68762;51.980;5.646;2024-01-10T04:36:12;-2.1;51.9
79187;SHT31;68762;51.980;5.646;2024-01-10T04:38:41;-2.1;52.2
79187;SHT31;68762;51.980;5.646;2024-01-10T04:41:09;-2.1;52.0
79187;SHT31;68762;51.980;5.646;2024-01-10T04:43:38;-2.1;51.9
79187;SHT31;68762;51.980;5.646;2024-01-10T04:46:07;-2.2;51.8
79187;SHT31;68762;51.980;5.646;2024-01-10T04:48:36;-2.2;51.5
79187;SHT31;68762;51.980;5.646;2024-01-10T04:51:05;-2.2;51.8
79187;SHT31;68762;51.980;5.646;2024-01-10T04:53:34;-2.2;51.9
79187;SHT31;68762;51.980;5.646;2024-01-10T04:56:02;-2.2;52.0
79187;SHT31;68762;51.980;5.646;2024-01-10T04:58:31;-2.2;52.1
79187;SHT31;68762;51.980;5.646;2024-01-10T05:01:02;-2.2;52.0
79187;SHT31;68762;51.980;5.646;2024-01-10T05:03:32;-2.2;52.2
79187;SHT31;68762;51.980;5.646;2024-01-10T05:06:00;-2.3;52.4
79187;SHT31;68762;51.980;5.646;2024-01-10T05:08:29;-2.3;52.3
79187;SHT31;68762;51.980;5.646;2024-01-10T05:10:59;-2.3;52.6
79187;SHT31;68762;51.980;5.646;2024-01-10T05:13:29;-2.3;52.7
79187;SHT31;68762;51.980;5.646;2024-01-10T05:15:57;-2.3;52.6
79187;SHT31;68762;51.980;5.646;2024-01-10T05:18:26;-2.3;52.5
79187;SHT31;68762;51.980;5.646;2024-01-10T05:20:55;-2.3;52.6
79187;SHT31;68762;51.980;5.646;2024-01-10T05:23:24;-2.3;52.4
79187;SHT31;68762;51.980;5.646;2024-01-10T05:25:53;-2.3;52.8
79187;SHT31;68762;51.980;5.646;2024-01-10T05:28:22;-2.3;52.9
79187;SHT31;68762;51.980;5.646;2024-01-10T05:30:50;-2.3;53.2
79187;SHT31;68762;51.980;5.646;2024-01-10T05:33:20;-2.4;53.0
79187;SHT31;68762;51.980;5.646;2024-01-10T05:35:48;-2.4;52.9
79187;SHT31;68762;51.980;5.646;2024-01-10T05:38:19;-2.4;53.1
79187;SHT31;68762;51.980;5.646;2024-01-10T05:40:48;-2.4;53.0
79187;SHT31;68762;51.980;5.646;2024-01-10T05:43:17;-2.4;53.0
79187;SHT31;68762;51.980;5.646;2024-01-10T05:45:46;-2.4;53.2
79187;SHT31;68762;51.980;5.646;2024-01-10T05:48:15;-2.4;53.0
79187;SHT31;68762;51.980;5.646;2024-01-10T05:50:44;-2.4;53.0
79187;SHT31;68762;51.980;5.646;2024-01-10T05:53:14;-2.4;53.4
79187;SHT31;68762;51.980;5.646;2024-01-10T05:55:43;-2.4;53.1
79187;SHT31;68762;51.980;5.646;2024-01-10T05:58:12;-2.4;53.1
79187;SHT31;68762;51.980;5.646;2024-01-10T06:00:40;-2.4;52.8
79187;SHT31;68762;51.980;5.646;2024-01-10T06:03:09;-2.4;53.0
79187;SHT31;68762;51.980;5.646;2024-01-10T06:05:37;-2.4;52.9
79187;SHT31;68762;51.980;5.646;2024-01-10T06:08:06;-2.4;52.9
79187;SHT31;68762;51.980;5.646;2024-01-10T06:10:35;-2.4;52.7
79187;SHT31;68762;51.980;5.646;2024-01-10T06:13:03;-2.4;52.8
79187;SHT31;68762;51.980;5.646;2024-01-10T06:15:32;-2.4;52.8
79187;SHT31;68762;51.980;5.646;2024-01-10T06:18:01;-2.4;52.9
79187;SHT31;68762;51.980;5.646;2024-01-10T06:20:31;-2.4;52.8
79187;SHT31;68762;51.980;5.646;2024-01-10T06:23:02;-2.4;52.9
79187;SHT31;68762;51.980;5.646;2024-01-10T06:25:30;-2.4;53.2
79187;SHT31;68762;51.980;5.646;2024-01-10T06:27:59;-2.4;53.0
79187;SHT31;68762;51.980;5.646;2024-01-10T06:30:27;-2.4;53.0
79187;SHT31;68762;51.980;5.646;2024-01-10T06:32:56;-2.4;53.0
79187;SHT31;68762;51.980;5.646;2024-01-10T06:35:26;-2.4;52.8
79187;SHT31;68762;51.980;5.646;2024-01-10T06:37:56;-2.4;52.6
79187;SHT31;68762;51.980;5.646;2024-01-10T06:40:26;-2.4;52.6
79187;SHT31;68762;51.980;5.646;2024-01-10T06:42:56;-2.5;52.9
79187;SHT31;68762;51.980;5.646;2024-01-10T06:45:25;-2.5;52.5
79187;SHT31;68762;51.980;5.646;2024-01-10T06:47:54;-2.5;52.4
79187;SHT31;68762;51.980;5.646;2024-01-10T06:50:23;-2.5;52.3
79187;SHT31;68762;51.980;5.646;2024-01-10T06:52:51;-2.5;52.9
79187;SHT31;68762;51.980;5.646;2024-01-10T06:55:20;-2.5;52.7
79187;SHT31;68762;51.980;5.646;2024-01-10T06:57:50;-2.5;52.7
79187;SHT31;68762;51.980;5.646;2024-01-10T07:00:21;-2.5;53.0
79187;SHT31;68762;51.980;5.646;2024-01-10T07:02:50;-2.5;53.1
79187;SHT31;68762;51.980;5.646;2024-01-10T07:05:21;-2.5;52.7
79187;SHT31;68762;51.980;5.646;2024-01-10T07:07:50;-2.5;52.9
79187;SHT31;68762;51.980;5.646;2024-01-10T07:10:21;-2.5;53.0
79187;SHT31;68762;51.980;5.646;2024-01-10T07:12:52;-2.5;52.7
79187;SHT31;68762;51.980;5.646;2024-01-10T07:15:21;-2.5;52.7
79187;SHT31;68762;51.980;5.646;2024-01-10T07:17:50;-2.5;52.7
79187;SHT31;68762;51.980;5.646;2024-01-10T07:20:18;-2.5;52.9
79187;SHT31;68762;51.980;5.646;2024-01-10T07:22:47;-2.5;53.0
79187;SHT31;68762;51.980;5.646;2024-01-10T07:25:15;-2.5;52.9
79187;SHT31;68762;51.980;5.646;2024-01-10T07:27:44;-2.5;52.7
79187;SHT31;68762;51.980;5.646;2024-01-10T07:30:13;-2.5;52.9
79187;SHT31;68762;51.980;5.646;2024-01-10T07:32:42;-2.5;52.9
79187;SHT31;68762;51.980;5.646;2024-01-10T07:35:12;-2.5;52.5
79187;SHT31;68762;51.980;5.646;2024-01-10T07:37:42;-2.5;52.7
79187;SHT31;68762;51.980;5.646;2024-01-10T07:40:11;-2.5;52.9
79187;SHT31;68762;51.980;5.646;2024-01-10T07:42:39;-2.5;52.7
79187;SHT31;68762;51.980;5.646;2024-01-10T07:45:09;-2.5;52.7
79187;SHT31;68762;51.980;5.646;2024-01-10T07:47:38;-2.5;52.6
79187;SHT31;68762;51.980;5.646;2024-01-10T07:50:08;-2.5;53.1
79187;SHT31;68762;51.980;5.646;2024-01-10T07:52:36;-2.5;52.8
79187;SHT31;68762;51.980;5.646;2024-01-10T07:55:07;-2.5;51.9
79187;SHT31;68762;51.980;5.646;2024-01-10T07:57:36;-2.5;52.5
79187;SHT31;68762;51.980;5.646;2024-01-10T08:00:06;-2.5;52.8
79187;SHT31;68762;51.980;5.646;2024-01-10T08:02:37;-2.5;52.8
79187;SHT31;68762;51.980;5.646;2024-01-10T08:05:07;-2.5;53.3
79187;SHT31;68762;51.980;5.646;2024-01-10T08:07:37;-2.5;52.9
79187;SHT31;68762;51.980;5.646;2024-01-10T08:10:06;-2.5;53.0
79187;SHT31;68762;51.980;5.646;2024-01-10T08:12:36;-2.5;53.4
79187;SHT31;68762;51.980;5.646;2024-01-10T08:15:05;-2.5;53.1
79187;SHT31;68762;51.980;5.646;2024-01-10T08:17:34;-2.5;52.8
79187;SHT31;68762;51.980;5.646;2024-01-10T08:20:04;-2.5;53.2
79187;SHT31;68762;51.980;5.646;2024-01-10T08:22:33;-2.5;52.8
79187;SHT31;68762;51.980;5.646;2024-01-10T08:25:02;-2.5;52.4
79187;SHT31;68762;51.980;5.646;2024-01-10T08:27:31;-2.5;52.4
79187;SHT31;68762;51.980;5.646;2024-01-10T08:30:00;-2.5;52.7
79187;SHT31;68762;51.980;5.646;2024-01-10T08:32:31;-2.5;52.7
79187;SHT31;68762;51.980;5.646;2024-01-10T08:35:01;-2.5;52.5
79187;SHT31;68762;51.980;5.646;2024-01-10T08:37:31;-2.5;52.2
79187;SHT31;68762;51.980;5.646;2024-01-10T08:40:00;-2.5;52.2
79187;SHT31;68762;51.980;5.646;2024-01-10T08:42:33;-2.5;51.6
79187;SHT31;68762;51.980;5.646;2024-01-10T08:45:01;-2.5;52.0
79187;SHT31;68762;51.980;5.646;2024-01-10T08:47:30;-2.5;51.4
79187;SHT31;68762;51.980;5.646;2024-01-10T08:49:59;-2.4;50.7
79187;SHT31;68762;51.980;5.646;2024-01-10T08:52:28;-2.4;51.0
79187;SHT31;68762;51.980;5.646;2024-01-10T08:54:56;-2.4;51.1
79187;SHT31;68762;51.980;5.646;2024-01-10T08:57:25;-2.4;50.9
79187;SHT31;68762;51.980;5.646;2024-01-10T08:59:54;-2.3;50.3
79187;SHT31;68762;51.980;5.646;2024-01-10T09:02:23;-2.3;50.6
79187;SHT31;68762;51.980;5.646;2024-01-10T09:04:54;-2.3;50.5
79187;SHT31;68762;51.980;5.646;2024-01-10T09:07:23;-2.2;50.4
79187;SHT31;68762;51.980;5.646;2024-01-10T09:09:51;-2.2;49.7
79187;SHT31;68762;51.980;5.646;2024-01-10T09:12:20;-2.1;49.9
79187;SHT31;68762;51.980;5.646;2024-01-10T09:14:48;-2.1;49.5
79187;SHT31;68762;51.980;5.646;2024-01-10T09:17:17;-2.1;49.7
79187;SHT31;68762;51.980;5.646;2024-01-10T09:19:45;-2.0;48.8
79187;SHT31;68762;51.980;5.646;2024-01-10T09:22:14;-2.0;49.3
79187;SHT31;68762;51.980;5.646;2024-01-10T09:24:42;-1.9;49.5
79187;SHT31;68762;51.980;5.646;2024-01-10T09:27:11;-1.9;49.2
79187;SHT31;68762;51.980;5.646;2024-01-10T09:29:40;-1.8;48.2
79187;SHT31;68762;51.980;5.646;2024-01-10T09:32:11;-1.8;48.3
79187;SHT31;68762;51.980;5.646;2024-01-10T09:34:39;-1.7;47.9
79187;SHT31;68762;51.980;5.646;2024-01-10T09:37:08;-1.7;47.7
79187;SHT31;68762;51.980;5.646;2024-01-10T09:39:36;-1.6;47.1
79187;SHT31;68762;51.980;5.646;2024-01-10T09:42:05;-1.6;47.0
79187;SHT31;68762;51.980;5.646;2024-01-10T09:44:36;-1.5;46.5
79187;SHT31;68762;51.980;5.646;2024-01-10T09:47:04;-1.5;46.9
79187;SHT31;68762;51.980;5.646;2024-01-10T09:49:33;-1.4;45.9
79187;SHT31;68762;51.980;5.646;2024-01-10T09:52:04;-1.4;46.1
79187;SHT31;68762;51.980;5.646;2024-01-10T09:54:38;-1.3;46.0
79187;SHT31;68762;51.980;5.646;2024-01-10T09:57:08;-1.2;45.3
79187;SHT31;68762;51.980;5.646;2024-01-10T09:59:37;-1.2;45.7
79187;SHT31;68762;51.980;5.646;2024-01-10T10:02:05;-1.1;45.6
79187;SHT31;68762;51.980;5.646;2024-01-10T10:04:38;-1.0;45.6
79187;SHT31;68762;51.980;5.646;2024-01-10T10:07:10;-1.0;45.3
79187;SHT31;68762;51.980;5.646;2024-01-10T10:09:39;-0.9;44.9
79187;SHT31;68762;51.980;5.646;2024-01-10T10:12:09;-0.9;45.0
79187;SHT31;68762;51.980;5.646;2024-01-10T10:14:37;-0.8;44.3
79187;SHT31;68762;51.980;5.646;2024-01-10T10:17:15;-0.8;44.0
79187;SHT31;68762;51.980;5.646;2024-01-10T10:19:45;-0.7;43.9
79187;SHT31;68762;51.980;5.646;2024-01-10T10:22:14;-0.6;44.2
79187;SHT31;68762;51.980;5.646;2024-01-10T10:24:49;-0.6;43.7
79187;SHT31;68762;51.980;5.646;2024-01-10T10:27:19;-0.5;43.5
79187;SHT31;68762;51.980;5.646;2024-01-10T10:29:49;-0.4;43.0
79187;SHT31;68762;51.980;5.646;2024-01-10T10:32:19;-0.4;43.0
79187;SHT31;68762;51.980;5.646;2024-01-10T10:34:48;-0.3;42.9
79187;SHT31;68762;51.980;5.646;2024-01-10T10:37:18;-0.3;42.5
79187;SHT31;68762;51.980;5.646;2024-01-10T10:39:47;-0.2;42.2
79187;SHT31;68762;51.980;5.646;2024-01-10T10:42:16;-0.2;41.8
79187;SHT31;68762;51.980;5.646;2024-01-10T10:44:46;-0.1;42.1
79187;SHT31;68762;51.980;5.646;2024-01-10T10:47:18;-0.1;41.8
79187;SHT31;68762;51.980;5.646;2024-01-10T10:49:53;0.0;40.8
79187;SHT31;68762;51.980;5.646;2024-01-10T10:52:24;0.1;41.2
79187;SHT31;68762;51.980;5.646;2024-01-10T10:54:56;0.1;40.6
79187;SHT31;68762;51.980;5.646;2024-01-10T10:57:26;0.2;40.3
79187;SHT31;68762;51.980;5.646;2024-01-10T10:59:57;0.3;39.1
79187;SHT31;68762;51.980;5.646;2024-01-10T11:02:27;0.3;40.1
79187;SHT31;68762;51.980;5.646;2024-01-10T11:04:56;0.4;38.8
79187;SHT31;68762;51.980;5.646;2024-01-10T11:07:26;0.4;39.3
79187;SHT31;68762;51.980;5.646;2024-01-10T11:09:57;0.5;39.6
79187;SHT31;68762;51.980;5.646;2024-01-10T11:12:38;0.6;39.6
79187;SHT31;68762;51.980;5.646;2024-01-10T11:15:24;0.6;38.6
79187;SHT31;68762;51.980;5.646;2024-01-10T11:18:32;0.7;38.3
79187;SHT31;68762;51.980;5.646;2024-01-10T11:21:18;0.8;39.3
79187;SHT31;68762;51.980;5.646;2024-01-10T11:23:54;0.9;37.2
79187;SHT31;68762;51.980;5.646;2024-01-10T11:26:25;0.9;38.3
79187;SHT31;68762;51.980;5.646;2024-01-10T11:28:54;1.0;37.7
79187;SHT31;68762;51.980;5.646;2024-01-10T11:31:30;1.0;38.4
79187;SHT31;68762;51.980;5.646;2024-01-10T11:34:01;1.1;38.1
79187;SHT31;68762;51.980;5.646;2024-01-10T11:36:30;1.2;38.3
79187;SHT31;68762;51.980;5.646;2024-01-10T11:39:03;1.3;38.4
79187;SHT31;68762;51.980;5.646;2024-01-10T11:41:35;1.4;37.7
79187;SHT31;68762;51.980;5.646;2024-01-10T11:44:31;1.4;37.7
79187;SHT31;68762;51.980;5.646;2024-01-10T11:47:00;1.5;37.0
79187;SHT31;68762;51.980;5.646;2024-01-10T11:49:29;1.6;37.5
79187;SHT31;68762;51.980;5.646;2024-01-10T11:51:58;1.6;37.4
79187;SHT31;68762;51.980;5.646;2024-01-10T11:54:38;1.7;37.3
79187;SHT31;68762;51.980;5.646;2024-01-10T11:57:10;2.1;37.7
79187;SHT31;68762;51.980;5.646;2024-01-10T11:59:41;3.2;34.3
79187;SHT31;68762;51.980;5.646;2024-01-10T12:02:10;4.3;33.1
79187;SHT31;68762;51.980;5.646;2024-01-10T12:04:40;5.1;31.4
79187;SHT31;68762;51.980;5.646;2024-01-10T12:07:11;5.6;30.5
79187;SHT31;68762;51.980;5.646;2024-01-10T12:09:40;6.1;29.8
79187;SHT31;68762;51.980;5.646;2024-01-10T12:12:10;6.7;29.0
79187;SHT31;68762;51.980;5.646;2024-01-10T12:14:41;7.2;27.8
79187;SHT31;68762;51.980;5.646;2024-01-10T12:17:11;7.6;27.7
79187;SHT31;68762;51.980;5.646;2024-01-10T12:19:39;8.0;26.8
79187;SHT31;68762;51.980;5.646;2024-01-10T12:22:11;8.3;27.4
79187;SHT31;68762;51.980;5.646;2024-01-10T12:24:48;8.7;26.2
79187;SHT31;68762;51.980;5.646;2024-01-10T12:27:18;9.0;26.6
79187;SHT31;68762;51.980;5.646;2024-01-10T12:29:50;9.3;25.0
79187;SHT31;68762;51.980;5.646;2024-01-10T12:32:20;9.5;25.0
79187;SHT31;68762;51.980;5.646;2024-01-10T12:34:54;9.7;26.0
79187;SHT31;68762;51.980;5.646;2024-01-10T12:37:23;9.9;25.5
79187;SHT31;68762;51.980;5.646;2024-01-10T12:39:51;10.1;25.0
79187;SHT31;68762;51.980;5.646;2024-01-10T12:42:22;10.3;25.0
79187;SHT31;68762;51.980;5.646;2024-01-10T12:44:53;10.5;24.2
79187;SHT31;68762;51.980;5.646;2024-01-10T12:47:23;10.6;24.3
79187;SHT31;68762;51.980;5.646;2024-01-10T12:49:55;10.8;23.4
79187;SHT31;68762;51.980;5.646;2024-01-10T12:52:23;10.9;23.8
79187;SHT31;68762;51.980;5.646;2024-01-10T12:54:52;11.0;23.3
79187;SHT31;68762;51.980;5.646;2024-01-10T12:57:21;11.2;23.7
79187;SHT31;68762;51.980;5.646;2024-01-10T12:59:50;11.3;23.7
79187;SHT31;68762;51.980;5.646;2024-01-10T13:02:18;11.5;23.0
79187;SHT31;68762;51.980;5.646;2024-01-10T13:04:47;11.6;23.2
79187;SHT31;68762;51.980;5.646;2024-01-10T13:07:16;11.8;22.8
79187;SHT31;68762;51.980;5.646;2024-01-10T13:09:44;11.9;22.7
79187;SHT31;68762;51.980;5.646;2024-01-10T13:12:13;12.0;22.9
79187;SHT31;68762;51.980;5.646;2024-01-10T13:14:42;12.2;22.0
79187;SHT31;68762;51.980;5.646;2024-01-10T13:17:11;12.2;23.7
79187;SHT31;68762;51.980;5.646;2024-01-10T13:19:39;12.3;22.6
79187;SHT31;68762;51.980;5.646;2024-01-10T13:22:11;12.3;22.7
79187;SHT31;68762;51.980;5.646;2024-01-10T13:24:42;12.3;23.1
79187;SHT31;68762;51.980;5.646;2024-01-10T13:27:12;12.3;22.1
79187;SHT31;68762;51.980;5.646;2024-01-10T13:29:41;12.3;22.5
79187;SHT31;68762;51.980;5.646;2024-01-10T13:32:09;12.2;22.4
79187;SHT31;68762;51.980;5.646;2024-01-10T13:34:38;12.2;22.5
79187;SHT31;68762;51.980;5.646;2024-01-10T13:37:06;12.1;22.7
79187;SHT31;68762;51.980;5.646;2024-01-10T13:39:40;12.1;22.9
79187;SHT31;68762;51.980;5.646;2024-01-10T13:42:09;12.1;22.9
79187;SHT31;68762;51.980;5.646;2024-01-10T13:44:38;12.1;22.3
79187;SHT31;68762;51.980;5.646;2024-01-10T13:47:07;12.1;22.8
79187;SHT31;68762;51.980;5.646;2024-01-10T13:49:36;12.1;22.6
79187;SHT31;68762;51.980;5.646;2024-01-10T13:52:05;12.2;22.1
79187;SHT31;68762;51.980;5.646;2024-01-10T13:54:34;12.1;22.2
79187;SHT31;68762;51.980;5.646;2024-01-10T13:57:03;12.0;22.6
79187;SHT31;68762;51.980;5.646;2024-01-10T13:59:32;11.8;22.7
79187;SHT31;68762;51.980;5.646;2024-01-10T14:02:00;11.7;22.8
79187;SHT31;68762;51.980;5.646;2024-01-10T14:04:29;11.7;22.7
79187;SHT31;68762;51.980;5.646;2024-01-10T14:06:58;11.6;22.9
79187;SHT31;68762;51.980;5.646;2024-01-10T14:09:26;11.5;23.6
79187;SHT31;68762;51.980;5.646;2024-01-10T14:11:56;11.5;23.3
79187;SHT31;68762;51.980;5.646;2024-01-10T14:14:24;11.4;24.0
79187;SHT31;68762;51.980;5.646;2024-01-10T14:16:53;11.3;23.8
79187;SHT31;68762;51.980;5.646;2024-01-10T14:19:21;11.2;23.8
79187;SHT31;68762;51.980;5.646;2024-01-10T14:21:50;11.0;23.9
79187;SHT31;68762;51.980;5.646;2024-01-10T14:24:18;10.8;24.9
79187;SHT31;68762;51.980;5.646;2024-01-10T14:26:47;10.4;25.2
79187;SHT31;68762;51.980;5.646;2024-01-10T14:29:15;10.0;26.5
79187;SHT31;68762;51.980;5.646;2024-01-10T14:31:44;9.6;26.1
79187;SHT31;68762;51.980;5.646;2024-01-10T14:34:14;9.2;28.8
79187;SHT31;68762;51.980;5.646;2024-01-10T14:36:43;8.9;27.3
79187;SHT31;68762;51.980;5.646;2024-01-10T14:39:12;8.6;28.7
79187;SHT31;68762;51.980;5.646;2024-01-10T14:41:42;8.3;28.3
79187;SHT31;68762;51.980;5.646;2024-01-10T14:44:10;8.1;29.0
79187;SHT31;68762;51.980;5.646;2024-01-10T14:46:39;7.8;29.4
79187;SHT31;68762;51.980;5.646;2024-01-10T14:49:07;7.6;29.4
79187;SHT31;68762;51.980;5.646;2024-01-10T14:51:36;7.4;30.1
79187;SHT31;68762;51.980;5.646;2024-01-10T14:54:04;7.2;30.3
79187;SHT31;68762;51.980;5.646;2024-01-10T14:56:33;7.0;30.0
79187;SHT31;68762;51.980;5.646;2024-01-10T14:59:02;6.9;30.0
79187;SHT31;68762;51.980;5.646;2024-01-10T15:01:30;6.7;30.5
79187;SHT31;68762;51.980;5.646;2024-01-10T15:03:59;6.5;30.4
79187;SHT31;68762;51.980;5.646;2024-01-10T15:06:27;6.3;32.1
79187;SHT31;68762;51.980;5.646;2024-01-10T15:08:56;6.2;31.3
79187;SHT31;68762;51.980;5.646;2024-01-10T15:11:24;6.0;31.7
79187;SHT31;68762;51.980;5.646;2024-01-10T15:13:53;5.9;31.8
79187;SHT31;68762;51.980;5.646;2024-01-10T15:16:23;5.7;32.7
79187;SHT31;68762;51.980;5.646;2024-01-10T15:18:51;5.6;32.4
79187;SHT31;68762;51.980;5.646;2024-01-10T15:21:20;5.5;32.8
79187;SHT31;68762;51.980;5.646;2024-01-10T15:23:49;5.4;34.2
79187;SHT31;68762;51.980;5.646;2024-01-10T15:26:19;5.3;33.6
79187;SHT31;68762;51.980;5.646;2024-01-10T15:28:49;5.2;34.2
79187;SHT31;68762;51.980;5.646;2024-01-10T15:31:20;5.1;34.1
79187;SHT31;68762;51.980;5.646;2024-01-10T15:33:49;5.0;33.7
79187;SHT31;68762;51.980;5.646;2024-01-10T15:36:18;4.9;33.5
79187;SHT31;68762;51.980;5.646;2024-01-10T15:38:46;4.8;34.3
79187;SHT31;68762;51.980;5.646;2024-01-10T15:41:16;4.7;34.0
79187;SHT31;68762;51.980;5.646;2024-01-10T15:43:45;4.6;35.8
79187;SHT31;68762;51.980;5.646;2024-01-10T15:46:19;4.5;34.3
79187;SHT31;68762;51.980;5.646;2024-01-10T15:48:48;4.4;35.2
79187;SHT31;68762;51.980;5.646;2024-01-10T15:51:17;4.3;35.5
79187;SHT31;68762;51.980;5.646;2024-01-10T15:53:46;4.2;35.5
79187;SHT31;68762;51.980;5.646;2024-01-10T15:56:16;4.2;35.8
79187;SHT31;68762;51.980;5.646;2024-01-10T15:58:47;4.1;35.8
79187;SHT31;68762;51.980;5.646;2024-01-10T16:01:16;4.0;36.2
79187;SHT31;68762;51.980;5.646;2024-01-10T16:03:44;4.0;36.6
79187;SHT31;68762;51.980;5.646;2024-01-10T16:06:13;3.9;35.8
79187;SHT31;68762;51.980;5.646;2024-01-10T16:08:43;3.8;37.1
79187;SHT31;68762;51.980;5.646;2024-01-10T16:11:12;3.8;36.5
79187;SHT31;68762;51.980;5.646;2024-01-10T16:13:40;3.7;37.2
79187;SHT31;68762;51.980;5.646;2024-01-10T16:16:09;3.7;37.5
79187;SHT31;68762;51.980;5.646;2024-01-10T16:18:38;3.6;37.5